Airfield :
LOGIN :

Register | Disclaimer

   EN    FR    IT 

 










Legend :    VFR   Marginal VFR   IFR   Intensive IFR   Very Intensive IFR
Visi :
Ceiling :
>= 8 km
>= 3000ft
5 to 8 km
1000 to 3000 ft
1500m to 5 km
500 to 1000 ft
800 to 1500m
200 to 500 ft
< 800m
< 200 ft
Symbols :   Thunderstorms  Fog  Heavy snow  Heavy precipitations  Wind > 20 kt
SIGMETs :     Misc.  Thunderstorms  Icing  Turbulence  Mountain Waves  Volcanic Ashes







- Airport Elevation : 37 ft


EHVL - Vlieland Heliport

CURRENT METAR :
  • 221255Z AUTO 32023KT 9999 BKN017 BKN030 BKN035 14/09 Q1026 WHT

EXPIRED METARs :
  • 221246Z AUTO 33022KT 9999 SCT017 SCT021 BKN026 14/09 Q1026 WHT
  • 221238Z AUTO 33023KT 9999 FEW017 SCT020 BKN040 14/09 Q1026 WHT
  • 221232Z AUTO 33023KT 9999 FEW019 SCT029 BKN039 14/09 Q1026 BLU
  • 221225Z AUTO 33022KT 9999 BKN017 BKN022 BKN026 14/09 Q1026 WHT
  • 221210Z AUTO 32021KT 9999 SCT016 SCT020 BKN023 15/10 Q1026 WHT
  • 221155Z AUTO 33021KT 9999 FEW016 SCT020 BKN028 14/10 Q1026 WHT
  • 221145Z AUTO 32023KT 9999 SCT019 BKN022 BKN026 13/10 Q1025 WHT
  • 221138Z AUTO 32023KT 9999 FEW016 SCT020 BKN025 13/10 Q1025 WHT
  • 221131Z AUTO 32022KT 6000 -RA FEW016 SCT020 BKN028 13/10 Q1025 WHT
  • 221125Z AUTO 32022KT 9999 SCT019 BKN047 OVC052 14/09 Q1026 WHT
  • 221103Z AUTO 32022KT 9999 SCT017 BKN020 BKN024 14/10 Q1025 WHT
  • 221056Z AUTO 33022KT 9999 SCT019 BKN027 BKN031 14/10 Q1025 WHT
  • 221045Z AUTO 33022KT 9999 FEW021 SCT025 BKN028 14/09 Q1025 BLU
  • 221044Z AUTO 33023KT 9999 FEW021 SCT024 BKN029 14/09 Q1025 WHT
  • 221035Z AUTO 33023KT 9999 FEW021 SCT024 OVC048 15/10 Q1025 WHT
  • 221025Z AUTO 33023KT 9999 FEW024 SCT032 OVC051 14/09 Q1025 BLU

Expired Forecast.
No reported NOTAMs for that airfield.



MET'MAP, your aeronautical weather chart ! - Copyright ORBIFLY December 2007 - Disclaimer

ORBIFLY MET'MAP TEAM :

Programming & Development : Alexandra Zaïnal
Concept & Development : Baudouin d'Aumeries
Co-Development & Prog : Marc-Olivier Méhu
Technical & hardware support : Manuel Goepfert

Contact : metmap@orbifly.com




SOURCES & CREDITS :

   NOAA